Time;durP1;ratioP1;P1;durP2;ratioP2;P2;SDS_P1;SDS_P2;PMS_P1;PMS_P2;Temp;Humidity;BMP_temperature;BMP_pressure;BME280_temperature;BME280_humidity;BME280_pressure;Samples;Min_cycle;Max_cycle;Signal;HPM_P1;HPM_P2
2023/12/09 00:01:03;;;;;;;;;;;;;;;7.29;nan;101406.41;5043451;28;19920;-89
2023/12/09 00:03:28;;;;;;;;;;;;;;;7.30;nan;101415.22;5046063;28;19917;-90
2023/12/09 00:05:53;;;;;;;;;;;;;;;7.31;nan;101419.50;5044984;28;19917;-90
2023/12/09 00:08:19;;;;;;;;;;;;;;;7.31;nan;101414.19;5043418;28;19917;-90
2023/12/09 00:10:44;;;;;;;;;;;;;;;7.28;nan;101416.25;5047606;28;19923;-90
2023/12/09 00:13:10;;;;;;;;;;;;;;;7.32;nan;101410.50;5042733;28;19999;-90
2023/12/09 00:15:36;;;;;;;;;;;;;;;7.31;nan;101408.84;5046676;28;20377;-89
2023/12/09 00:18:02;;;;;;;;;;;;;;;7.29;nan;101409.06;5025371;28;19932;-88
2023/12/09 00:20:27;;;;;;;;;;;;;;;7.29;nan;101403.75;5044037;28;19928;-89
2023/12/09 00:22:53;;;;;;;;;;;;;;;7.31;nan;101407.00;5042090;28;20758;-89
2023/12/09 00:25:18;;;;;;;;;;;;;;;7.32;nan;101397.16;5042009;28;19924;-89
2023/12/09 00:27:43;;;;;;;;;;;;;;;7.34;nan;101403.09;5043404;28;19920;-89
2023/12/09 00:30:09;;;;;;;;;;;;;;;7.33;nan;101404.94;5046329;28;19950;-90
2023/12/09 00:32:34;;;;;;;;;;;;;;;7.35;nan;101400.22;5042107;28;19917;-89
2023/12/09 00:35:00;;;;;;;;;;;;;;;7.38;nan;101399.00;5048479;28;20474;-89
2023/12/09 00:37:26;;;;;;;;;;;;;;;7.39;nan;101392.66;5043514;28;19921;-89
2023/12/09 00:39:51;;;;;;;;;;;;;;;7.38;nan;101391.81;5043252;28;19932;-90
2023/12/09 00:42:16;;;;;;;;;;;;;;;7.39;nan;101396.13;5045699;28;19924;-90
2023/12/09 00:44:42;;;;;;;;;;;;;;;7.37;nan;101398.19;5043815;28;19970;-90
2023/12/09 00:47:07;;;;;;;;;;;;;;;7.35;nan;101402.88;5049314;28;20019;-89
2023/12/09 00:49:32;;;;;;;;;;;;;;;7.35;nan;101400.22;5042724;28;19992;-89
2023/12/09 00:51:58;;;;;;;;;;;;;;;7.34;nan;101398.59;5044283;28;20128;-89
2023/12/09 00:54:23;;;;;;;;;;;;;;;7.35;nan;101397.56;5025230;28;20438;-89
2023/12/09 00:56:48;;;;;;;;;;;;;;;7.32;nan;101403.31;5043206;28;19921;-89
2023/12/09 00:59:14;;;;;;;;;;;;;;;7.35;nan;101405.56;5042348;28;19917;-89
2023/12/09 01:01:39;;;;;;;;;;;;;;;7.38;nan;101407.00;5045483;28;20059;-89
2023/12/09 01:04:05;;;;;;;;;;;;;;;7.37;nan;101408.84;5043185;28;20008;-89
2023/12/09 01:06:31;;;;;;;;;;;;;;;7.41;nan;101403.91;5040408;28;19929;-89
2023/12/09 01:08:58;;;;;;;;;;;;;;;7.40;nan;101410.28;5043575;28;20342;-90
2023/12/09 01:11:24;;;;;;;;;;;;;;;7.38;nan;101402.50;5043311;28;20109;-90
2023/12/09 01:13:49;;;;;;;;;;;;;;;7.41;nan;101409.25;5041131;28;20047;-89
2023/12/09 01:16:15;;;;;;;;;;;;;;;7.37;nan;101408.84;5043158;28;20063;-89
2023/12/09 01:18:40;;;;;;;;;;;;;;;7.36;nan;101423.22;5036544;28;19990;-89
2023/12/09 01:21:05;;;;;;;;;;;;;;;7.31;nan;101409.66;5041157;28;19925;-89
2023/12/09 01:23:31;;;;;;;;;;;;;;;7.30;nan;101412.56;5042208;28;21203;-89
2023/12/09 01:25:56;;;;;;;;;;;;;;;7.30;nan;101410.69;5044421;28;19924;-89
2023/12/09 01:28:21;;;;;;;;;;;;;;;7.30;nan;101412.56;5040594;28;19917;-89
2023/12/09 01:30:46;;;;;;;;;;;;;;;7.30;nan;101415.22;5042098;28;19920;-89
2023/12/09 01:33:12;;;;;;;;;;;;;;;7.31;nan;101411.53;5041388;28;19940;-88
2023/12/09 01:35:37;;;;;;;;;;;;;;;7.35;nan;101412.72;5042341;28;20638;-90
2023/12/09 01:38:03;;;;;;;;;;;;;;;7.33;nan;101407.63;5042707;28;19917;-90
2023/12/09 01:40:28;;;;;;;;;;;;;;;7.33;nan;101412.94;5039853;28;19924;-89
2023/12/09 01:42:53;;;;;;;;;;;;;;;7.35;nan;101413.53;5039947;28;19927;-89
2023/12/09 01:45:20;;;;;;;;;;;;;;;7.34;nan;101413.75;5039821;28;19924;-89
2023/12/09 01:47:46;;;;;;;;;;;;;;;7.33;nan;101412.94;5043750;28;19921;-89
2023/12/09 01:50:13;;;;;;;;;;;;;;;7.34;nan;101409.25;5041915;28;19924;-89
2023/12/09 01:52:39;;;;;;;;;;;;;;;7.33;nan;101415.59;5040318;28;19925;-90
2023/12/09 01:55:04;;;;;;;;;;;;;;;7.33;nan;101415.59;5041906;28;19924;-89
2023/12/09 01:57:30;;;;;;;;;;;;;;;7.32;nan;101410.50;5046483;28;19917;-88
2023/12/09 01:59:55;;;;;;;;;;;;;;;7.33;nan;101406.78;5041358;28;19948;-89
2023/12/09 02:02:21;;;;;;;;;;;;;;;7.37;nan;101400.84;5040209;28;19920;-89
2023/12/09 02:04:46;;;;;;;;;;;;;;;7.42;nan;101403.69;5038830;28;19913;-89
2023/12/09 02:07:11;;;;;;;;;;;;;;;7.45;nan;101402.44;5040340;28;21340;-90
2023/12/09 02:09:39;;;;;;;;;;;;;;;7.48;nan;101402.03;5045028;28;19921;-89
2023/12/09 02:12:04;;;;;;;;;;;;;;;7.50;nan;101405.28;5041107;28;20093;-88
2023/12/09 02:14:35;;;;;;;;;;;;;;;7.49;nan;101401.81;5040223;28;20440;-89
2023/12/09 02:17:08;;;;;;;;;;;;;;;7.52;nan;101406.72;5041171;28;19917;-89
2023/12/09 02:19:33;;;;;;;;;;;;;;;7.54;nan;101399.34;5038034;28;19924;-89
2023/12/09 02:22:04;;;;;;;;;;;;;;;7.57;nan;101396.25;5038880;28;19921;-89
2023/12/09 02:24:29;;;;;;;;;;;;;;;7.60;nan;101403.00;5036535;28;19962;-89
2023/12/09 02:27:07;;;;;;;;;;;;;;;7.62;nan;101406.28;5022935;28;19921;-89
2023/12/09 02:29:35;;;;;;;;;;;;;;;7.64;nan;101406.06;5040566;28;19917;-89
2023/12/09 02:32:02;;;;;;;;;;;;;;;7.61;nan;101398.50;5037619;28;19951;-90
2023/12/09 02:34:28;;;;;;;;;;;;;;;7.60;nan;101391.53;5039133;28;20008;-89
2023/12/09 02:36:56;;;;;;;;;;;;;;;7.63;nan;101401.75;5039035;28;20015;-89
2023/12/09 02:39:22;;;;;;;;;;;;;;;7.66;nan;101398.66;5039895;28;19948;-89
2023/12/09 02:41:48;;;;;;;;;;;;;;;7.66;nan;101401.34;5035853;28;20231;-89
2023/12/09 02:44:13;;;;;;;;;;;;;;;7.66;nan;101398.66;5033913;28;19917;-89
2023/12/09 02:46:38;;;;;;;;;;;;;;;7.64;nan;101400.72;5043931;28;19927;-89
2023/12/09 02:49:04;;;;;;;;;;;;;;;7.62;nan;101398.28;5040805;28;20056;-89
2023/12/09 02:51:29;;;;;;;;;;;;;;;7.59;nan;101401.38;5022848;28;20062;-89
2023/12/09 02:53:54;;;;;;;;;;;;;;;7.62;nan;101402.78;5039351;28;19917;-89
2023/12/09 02:56:20;;;;;;;;;;;;;;;7.62;nan;101398.28;5039817;28;19946;-89
2023/12/09 02:58:46;;;;;;;;;;;;;;;7.63;nan;101399.91;5040333;28;19917;-89
2023/12/09 03:01:11;;;;;;;;;;;;;;;7.60;nan;101395.00;5042630;28;19928;-89
2023/12/09 03:03:36;;;;;;;;;;;;;;;7.56;nan;101391.94;5044790;28;19931;-89
2023/12/09 03:06:02;;;;;;;;;;;;;;;7.57;nan;101385.59;5044523;28;19928;-87
2023/12/09 03:08:27;;;;;;;;;;;;;;;7.58;nan;101384.56;5044263;28;19921;-89
2023/12/09 03:10:52;;;;;;;;;;;;;;;7.58;nan;101381.06;5027216;28;21270;-89
2023/12/09 03:13:18;;;;;;;;;;;;;;;7.57;nan;101385.59;5025375;28;19932;-89
2023/12/09 03:15:43;;;;;;;;;;;;;;;7.60;nan;101379.00;5046109;28;19974;-88
2023/12/09 03:18:08;;;;;;;;;;;;;;;7.62;nan;101376.13;5044968;28;20583;-89
2023/12/09 03:20:33;;;;;;;;;;;;;;;7.65;nan;101373.03;5030043;28;20426;-90
2023/12/09 03:22:59;;;;;;;;;;;;;;;7.64;nan;101376.72;5030608;28;20366;-89
2023/12/09 03:25:24;;;;;;;;;;;;;;;7.62;nan;101373.47;5046484;28;19924;-90
2023/12/09 03:27:49;;;;;;;;;;;;;;;7.60;nan;101378.19;5045745;28;20415;-89
2023/12/09 03:30:15;;;;;;;;;;;;;;;7.60;nan;101378.19;5044827;28;20015;-88
2023/12/09 03:32:40;;;;;;;;;;;;;;;7.58;nan;101376.56;5046677;28;20324;-90
2023/12/09 03:35:07;;;;;;;;;;;;;;;7.55;nan;101379.66;5046973;28;19924;-88
2023/12/09 03:37:32;;;;;;;;;;;;;;;7.54;nan;101374.50;5044941;28;19913;-89
2023/12/09 03:39:58;;;;;;;;;;;;;;;7.55;nan;101373.50;5043250;28;19923;-89
2023/12/09 03:42:23;;;;;;;;;;;;;;;7.57;nan;101374.09;5043481;28;20023;-89
2023/12/09 03:44:48;;;;;;;;;;;;;;;7.58;nan;101373.88;5044317;28;21012;-89
2023/12/09 03:47:14;;;;;;;;;;;;;;;7.62;nan;101381.47;5052049;28;19981;-89
2023/12/09 03:49:39;;;;;;;;;;;;;;;7.65;nan;101381.84;5046169;28;20504;-89
2023/12/09 03:52:04;;;;;;;;;;;;;;;7.67;nan;101378.97;5043843;28;20406;-89
2023/12/09 03:54:30;;;;;;;;;;;;;;;7.68;nan;101383.25;5043061;28;20420;-88
2023/12/09 03:56:55;;;;;;;;;;;;;;;7.66;nan;101388.81;5027370;28;21515;-89
2023/12/09 03:59:20;;;;;;;;;;;;;;;7.64;nan;101390.06;5045755;28;20019;-89
2023/12/09 04:01:49;;;;;;;;;;;;;;;7.60;nan;101391.53;5042248;28;20008;-89
2023/12/09 04:04:15;;;;;;;;;;;;;;;7.60;nan;101391.53;5045376;28;20008;-89
2023/12/09 04:06:41;;;;;;;;;;;;;;;7.62;nan;101392.94;5044353;28;20437;-89
2023/12/09 04:09:06;;;;;;;;;;;;;;;7.62;nan;101395.59;5044120;28;19940;-89
2023/12/09 04:11:32;;;;;;;;;;;;;;;7.65;nan;101389.03;5042109;28;20040;-89
2023/12/09 04:13:57;;;;;;;;;;;;;;;7.64;nan;101390.06;5045276;28;19920;-89
2023/12/09 04:16:22;;;;;;;;;;;;;;;7.60;nan;101386.19;5046558;28;19943;-88
2023/12/09 04:18:47;;;;;;;;;;;;;;;7.61;nan;101383.31;5037371;28;20414;-89
2023/12/09 04:21:13;;;;;;;;;;;;;;;7.63;nan;101380.44;5035826;28;20613;-89
2023/12/09 04:23:38;;;;;;;;;;;;;;;7.63;nan;101386.56;5043056;28;19918;-89
2023/12/09 04:26:04;;;;;;;;;;;;;;;7.64;nan;101382.88;5042316;28;19921;-89
2023/12/09 04:28:30;;;;;;;;;;;;;;;7.66;nan;101380.00;5041251;28;19928;-89
2023/12/09 04:30:55;;;;;;;;;;;;;;;7.68;nan;101377.94;5026937;28;20824;-89
2023/12/09 04:33:21;;;;;;;;;;;;;;;7.69;nan;101374.22;5041184;28;19943;-89
2023/12/09 04:35:46;;;;;;;;;;;;;;;7.69;nan;101376.91;5043350;28;20013;-88
2023/12/09 04:38:11;;;;;;;;;;;;;;;7.71;nan;101380.16;5043751;28;20767;-88
2023/12/09 04:40:38;;;;;;;;;;;;;;;7.73;nan;101386.13;5042883;28;20439;-89
2023/12/09 04:43:03;;;;;;;;;;;;;;;7.72;nan;101382.66;5026785;28;19921;-89
2023/12/09 04:45:29;;;;;;;;;;;;;;;7.69;nan;101388.38;5043012;28;20073;-88
2023/12/09 04:47:54;;;;;;;;;;;;;;;7.68;nan;101393.94;5044240;28;19920;-89
2023/12/09 04:50:19;;;;;;;;;;;;;;;7.68;nan;101393.94;5042187;28;20437;-89
2023/12/09 04:52:45;;;;;;;;;;;;;;;7.68;nan;101392.09;5045129;28;19986;-89
2023/12/09 04:55:11;;;;;;;;;;;;;;;7.69;nan;101390.22;5042220;28;19928;-89
2023/12/09 04:57:37;;;;;;;;;;;;;;;7.69;nan;101390.22;5042267;28;19917;-90
2023/12/09 05:00:05;;;;;;;;;;;;;;;7.72;nan;101384.47;5044916;28;19925;-88
2023/12/09 05:02:30;;;;;;;;;;;;;;;7.74;nan;101390.44;5046922;28;19923;-89
2023/12/09 05:04:56;;;;;;;;;;;;;;;7.75;nan;101384.06;5042451;28;21237;-89
2023/12/09 05:07:25;;;;;;;;;;;;;;;7.78;nan;101384.44;5043605;28;19929;-89
2023/12/09 05:09:51;;;;;;;;;;;;;;;7.81;nan;101383.19;5038686;28;19925;-89
2023/12/09 05:12:16;;;;;;;;;;;;;;;7.84;nan;101382.75;5041763;28;19917;-88
2023/12/09 05:14:41;;;;;;;;;;;;;;;7.87;nan;101377.00;5042556;28;20728;-89
2023/12/09 05:17:07;;;;;;;;;;;;;;;7.87;nan;101383.16;5042528;28;20649;-89
2023/12/09 05:19:32;;;;;;;;;;;;;;;7.85;nan;101377.22;5040974;28;20403;-89
2023/12/09 05:21:57;;;;;;;;;;;;;;;7.83;nan;101386.47;5041427;28;19924;-89
2023/12/09 05:24:23;;;;;;;;;;;;;;;7.84;nan;101386.25;5037508;28;19966;-89
2023/12/09 05:26:48;;;;;;;;;;;;;;;7.84;nan;101383.59;5040272;28;19928;-90
2023/12/09 05:29:13;;;;;;;;;;;;;;;7.85;nan;101390.56;5040911;28;19925;-89
2023/12/09 05:31:40;;;;;;;;;;;;;;;7.84;nan;101388.91;5027524;28;20076;-89
2023/12/09 05:34:06;;;;;;;;;;;;;;;7.81;nan;101380.53;5040668;28;20021;-89
2023/12/09 05:36:31;;;;;;;;;;;;;;;7.81;nan;101393.88;5041548;28;20040;-89
2023/12/09 05:38:56;;;;;;;;;;;;;;;7.80;nan;101377.03;5046020;28;19978;-90
2023/12/09 05:41:21;;;;;;;;;;;;;;;7.80;nan;101381.56;5043065;28;19929;-89
2023/12/09 05:43:47;;;;;;;;;;;;;;;7.80;nan;101386.91;5041998;28;19943;-89
2023/12/09 05:46:19;;;;;;;;;;;;;;;7.80;nan;101381.56;5025103;28;20301;-89
2023/12/09 05:48:44;;;;;;;;;;;;;;;7.81;nan;101378.69;5042756;28;19924;-89
2023/12/09 05:51:10;;;;;;;;;;;;;;;7.81;nan;101391.19;5024522;28;19921;-89
2023/12/09 05:53:35;;;;;;;;;;;;;;;7.82;nan;101391.00;5043048;28;19931;-89
2023/12/09 05:56:01;;;;;;;;;;;;;;;7.83;nan;101386.47;5042866;28;19994;-89
2023/12/09 05:58:26;;;;;;;;;;;;;;;7.85;nan;101385.22;5037426;28;20495;-89
2023/12/09 06:00:51;;;;;;;;;;;;;;;7.83;nan;101383.78;5045096;28;20001;-89
2023/12/09 06:03:17;;;;;;;;;;;;;;;7.80;nan;101387.72;5042548;28;19928;-89
2023/12/09 06:05:42;;;;;;;;;;;;;;;7.80;nan;101377.03;5042833;28;19924;-89
2023/12/09 06:08:07;;;;;;;;;;;;;;;7.79;nan;101364.75;5040278;28;19925;-89
2023/12/09 06:10:33;;;;;;;;;;;;;;;7.81;nan;101367.19;5044698;28;20784;-89
2023/12/09 06:12:58;;;;;;;;;;;;;;;7.82;nan;101366.97;5038784;28;19917;-89
2023/12/09 06:15:23;;;;;;;;;;;;;;;7.84;nan;101366.75;5040839;28;19924;-89
2023/12/09 06:17:49;;;;;;;;;;;;;;;7.86;nan;101362.03;5042935;28;19936;-89
2023/12/09 06:20:14;;;;;;;;;;;;;;;7.87;nan;101355.66;5039260;28;19917;-88
2023/12/09 06:22:39;;;;;;;;;;;;;;;7.87;nan;101361.81;5038713;28;19917;-89
2023/12/09 06:25:05;;;;;;;;;;;;;;;7.87;nan;101363.66;5040688;28;19920;-89
2023/12/09 06:27:30;;;;;;;;;;;;;;;7.88;nan;101357.28;5043829;28;19964;-89
2023/12/09 06:29:55;;;;;;;;;;;;;;;7.87;nan;101366.31;5040007;28;19939;-88
2023/12/09 06:32:21;;;;;;;;;;;;;;;7.85;nan;101357.72;5039637;28;19921;-89
2023/12/09 06:34:46;;;;;;;;;;;;;;;7.84;nan;101362.25;5040743;28;19921;-89
2023/12/09 06:37:11;;;;;;;;;;;;;;;7.84;nan;101364.09;5036598;28;19921;-89
2023/12/09 06:39:37;;;;;;;;;;;;;;;7.83;nan;101355.28;5038340;28;19928;-89
2023/12/09 06:42:02;;;;;;;;;;;;;;;7.86;nan;101370.03;5039993;28;19940;-88
2023/12/09 06:44:28;;;;;;;;;;;;;;;7.87;nan;101361.00;5032924;28;20381;-89
2023/12/09 06:46:53;;;;;;;;;;;;;;;7.83;nan;101363.28;5040449;28;19978;-88
2023/12/09 06:49:18;;;;;;;;;;;;;;;7.80;nan;101361.03;5038669;28;19921;-89
2023/12/09 06:51:44;;;;;;;;;;;;;;;7.74;nan;101358.44;5037229;28;20344;-89
2023/12/09 06:54:10;;;;;;;;;;;;;;;7.75;nan;101368.88;5038949;28;19978;-89
2023/12/09 06:56:36;;;;;;;;;;;;;;;7.75;nan;101357.38;5040782;28;20007;-88
2023/12/09 06:59:01;;;;;;;;;;;;;;;7.78;nan;101362.28;5039946;28;20780;-89
2023/12/09 07:01:29;;;;;;;;;;;;;;;7.75;nan;101357.38;5038290;28;19917;-88
2023/12/09 07:03:55;;;;;;;;;;;;;;;7.75;nan;101357.38;5036271;28;20388;-88
2023/12/09 07:06:24;;;;;;;;;;;;;;;7.75;nan;101366.22;5040161;28;19921;-88
2023/12/09 07:08:49;;;;;;;;;;;;;;;7.73;nan;101364.78;5036048;28;19924;-88
2023/12/09 07:11:18;;;;;;;;;;;;;;;7.72;nan;101368.47;5025818;28;20412;-88
2023/12/09 07:13:43;;;;;;;;;;;;;;;7.72;nan;101368.47;5037607;28;20250;-87
2023/12/09 07:16:09;;;;;;;;;;;;;;;7.74;nan;101364.56;5038532;28;19924;-87
2023/12/09 07:18:35;;;;;;;;;;;;;;;7.77;nan;101366.00;5038522;28;20289;-88
2023/12/09 07:21:00;;;;;;;;;;;;;;;7.81;nan;101367.19;5035707;28;19971;-88
2023/12/09 07:23:26;;;;;;;;;;;;;;;7.83;nan;101365.13;5040856;28;19925;-88
2023/12/09 07:25:51;;;;;;;;;;;;;;;7.85;nan;101365.72;5035464;28;19921;-89
2023/12/09 07:28:16;;;;;;;;;;;;;;;7.86;nan;101359.34;5038714;28;19925;-88
2023/12/09 07:30:42;;;;;;;;;;;;;;;7.88;nan;101362.63;5039852;28;20032;-88
2023/12/09 07:33:07;;;;;;;;;;;;;;;7.87;nan;101361.00;5038911;28;20138;-88
2023/12/09 07:35:33;;;;;;;;;;;;;;;7.85;nan;101371.06;5036328;28;19965;-88
2023/12/09 07:37:58;;;;;;;;;;;;;;;7.84;nan;101375.56;5037899;28;19929;-88
2023/12/09 07:40:24;;;;;;;;;;;;;;;7.85;nan;101373.72;5036501;28;20201;-88
2023/12/09 07:42:49;;;;;;;;;;;;;;;7.86;nan;101375.34;5035382;28;20325;-87
2023/12/09 07:45:14;;;;;;;;;;;;;;;7.85;nan;101377.22;5038407;28;19923;-87
2023/12/09 07:47:40;;;;;;;;;;;;;;;7.80;nan;101377.03;5038054;28;19935;-88
2023/12/09 07:50:05;;;;;;;;;;;;;;;7.80;nan;101378.91;5041517;28;19916;-88
2023/12/09 07:52:30;;;;;;;;;;;;;;;7.80;nan;101381.56;5041837;28;20490;-87
2023/12/09 07:54:56;;;;;;;;;;;;;;;7.81;nan;101375.19;5039816;28;19925;-88
2023/12/09 07:57:21;;;;;;;;;;;;;;;7.84;nan;101372.91;5040460;28;19931;-87
2023/12/09 07:59:46;;;;;;;;;;;;;;;7.86;nan;101386.03;5041710;28;19951;-87
2023/12/09 08:02:12;;;;;;;;;;;;;;;7.84;nan;101380.09;5040770;28;19925;-87
2023/12/09 08:04:38;;;;;;;;;;;;;;;7.87;nan;101390.34;5042316;28;19916;-88
2023/12/09 08:07:03;;;;;;;;;;;;;;;7.88;nan;101384.78;5042697;28;19952;-88
2023/12/09 08:09:29;;;;;;;;;;;;;;;7.93;nan;101381.50;5040372;28;19925;-84
2023/12/09 08:11:55;;;;;;;;;;;;;;;7.94;nan;101383.13;5039719;28;19920;-89
2023/12/09 08:14:21;;;;;;;;;;;;;;;7.99;nan;101367.28;5039148;28;19921;-88
2023/12/09 08:16:46;;;;;;;;;;;;;;;8.03;nan;101373.81;5027712;28;19940;-88
2023/12/09 08:19:13;;;;;;;;;;;;;;;8.06;nan;101375.22;5041332;28;20003;-88
2023/12/09 08:21:38;;;;;;;;;;;;;;;8.09;nan;101375.63;5039922;28;20435;-88
2023/12/09 08:24:04;;;;;;;;;;;;;;;8.09;nan;101374.81;5040795;28;19921;-88
2023/12/09 08:26:30;;;;;;;;;;;;;;;8.08;nan;101368.66;5041058;28;19917;-88
2023/12/09 08:28:55;;;;;;;;;;;;;;;8.12;nan;101372.53;5036329;28;19927;-88
2023/12/09 08:31:20;;;;;;;;;;;;;;;8.07;nan;101372.34;5023353;28;19921;-88
2023/12/09 08:33:46;;;;;;;;;;;;;;;8.02;nan;101374.84;5041292;28;19924;-87
2023/12/09 08:36:11;;;;;;;;;;;;;;;7.98;nan;101373.66;5042142;28;19931;-87
2023/12/09 08:38:36;;;;;;;;;;;;;;;7.98;nan;101368.31;5038333;28;20189;-88
2023/12/09 08:41:02;;;;;;;;;;;;;;;7.98;nan;101373.66;5040785;28;19921;-88
2023/12/09 08:43:28;;;;;;;;;;;;;;;8.01;nan;101375.06;5040282;28;19917;-87
2023/12/09 08:45:53;;;;;;;;;;;;;;;8.03;nan;101365.81;5041007;28;19932;-88
2023/12/09 08:48:18;;;;;;;;;;;;;;;8.07;nan;101363.53;5023744;28;20407;-89
2023/12/09 08:50:44;;;;;;;;;;;;;;;8.09;nan;101359.63;5042620;28;19955;-88
2023/12/09 08:53:09;;;;;;;;;;;;;;;8.08;nan;101367.84;5039487;28;19921;-89
2023/12/09 08:55:34;;;;;;;;;;;;;;;8.04;nan;101356.75;5026355;28;20629;-85
2023/12/09 08:58:00;;;;;;;;;;;;;;;8.04;nan;101351.44;5026396;28;20007;-85
2023/12/09 09:00:26;;;;;;;;;;;;;;;8.02;nan;101361.50;5027188;28;19921;-85
2023/12/09 09:02:55;;;;;;;;;;;;;;;7.99;nan;101361.13;5029752;28;19925;-85
2023/12/09 09:05:21;;;;;;;;;;;;;;;7.98;nan;101360.31;5029074;28;19932;-85
2023/12/09 09:07:46;;;;;;;;;;;;;;;8.03;nan;101359.66;5029786;28;19929;-84
2023/12/09 09:10:11;;;;;;;;;;;;;;;8.07;nan;101367.00;5028717;28;19924;-85
2023/12/09 09:12:37;;;;;;;;;;;;;;;8.07;nan;101360.84;5028608;28;19925;-85
2023/12/09 09:15:02;;;;;;;;;;;;;;;8.09;nan;101361.47;5028486;28;19927;-85
2023/12/09 09:17:28;;;;;;;;;;;;;;;8.11;nan;101360.22;5027554;28;19968;-85
2023/12/09 09:19:54;;;;;;;;;;;;;;;8.15;nan;101364.09;5027530;28;19987;-85
2023/12/09 09:22:19;;;;;;;;;;;;;;;8.16;nan;101357.72;5027468;28;20013;-84
2023/12/09 09:24:47;;;;;;;;;;;;;;;8.19;nan;101353.78;5028707;28;20272;-85
2023/12/09 09:27:12;;;;;;;;;;;;;;;8.14;nan;101348.28;5028627;28;20669;-85
2023/12/09 09:29:38;;;;;;;;;;;;;;;8.13;nan;101342.13;5029897;28;19982;-85
2023/12/09 09:32:04;;;;;;;;;;;;;;;8.15;nan;101337.41;5030789;28;20375;-85
2023/12/09 09:34:29;;;;;;;;;;;;;;;8.16;nan;101333.69;5028459;28;20703;-85
2023/12/09 09:36:54;;;;;;;;;;;;;;;8.16;nan;101333.69;5030620;28;19925;-85
2023/12/09 09:39:20;;;;;;;;;;;;;;;8.15;nan;101334.72;5028945;28;19925;-84
2023/12/09 09:42:03;;;;;;;;;;;;;;;8.17;nan;101337.19;5029266;28;19921;-84
2023/12/09 09:44:28;;;;;;;;;;;;;;;8.15;nan;101336.59;5026404;28;19933;-85
2023/12/09 09:46:56;;;;;;;;;;;;;;;8.14;nan;101334.94;5011460;28;19925;-85
2023/12/09 09:49:23;;;;;;;;;;;;;;;8.16;nan;101327.53;5027349;28;20015;-86
2023/12/09 09:51:51;;;;;;;;;;;;;;;8.16;nan;101323.00;5027443;28;19925;-85
2023/12/09 09:54:23;;;;;;;;;;;;;;;8.17;nan;101319.31;5027917;28;19924;-85
2023/12/09 09:56:49;;;;;;;;;;;;;;;8.19;nan;101327.91;5030939;28;19928;-85
2023/12/09 09:59:14;;;;;;;;;;;;;;;8.19;nan;101325.25;5029345;28;20015;-85
2023/12/09 10:01:41;;;;;;;;;;;;;;;8.18;nan;101320.94;5030013;28;20278;-85
2023/12/09 10:04:06;;;;;;;;;;;;;;;8.17;nan;101321.16;5029877;28;19921;-85
2023/12/09 10:06:33;;;;;;;;;;;;;;;8.19;nan;101324.44;5028179;28;19994;-85
2023/12/09 10:08:58;;;;;;;;;;;;;;;8.15;nan;101309.88;5027761;28;19972;-85
2023/12/09 10:11:24;;;;;;;;;;;;;;;8.12;nan;101295.13;5010611;28;20027;-85
2023/12/09 10:13:49;;;;;;;;;;;;;;;8.13;nan;101301.28;5028528;28;19955;-85
2023/12/09 10:16:15;;;;;;;;;;;;;;;8.17;nan;101297.13;5030009;28;19917;-85
2023/12/09 10:18:44;;;;;;;;;;;;;;;8.20;nan;101291.34;5025404;28;21125;-85
2023/12/09 10:21:09;;;;;;;;;;;;;;;8.24;nan;101291.72;5024093;28;21195;-85
2023/12/09 10:23:35;;;;;;;;;;;;;;;8.28;nan;101283.09;5027540;28;19971;-85
2023/12/09 10:26:01;;;;;;;;;;;;;;;8.31;nan;101289.84;5027452;28;19964;-85
2023/12/09 10:28:26;;;;;;;;;;;;;;;8.32;nan;101288.78;5027826;28;19929;-85
2023/12/09 10:30:52;;;;;;;;;;;;;;;8.33;nan;101285.91;5028580;28;19932;-85
2023/12/09 10:33:17;;;;;;;;;;;;;;;8.35;nan;101281.19;5027964;28;19924;-85
2023/12/09 10:35:42;;;;;;;;;;;;;;;8.36;nan;101279.34;5028726;28;19991;-85
2023/12/09 10:38:08;;;;;;;;;;;;;;;8.36;nan;101282.00;5030328;28;20496;-86
2023/12/09 10:40:34;;;;;;;;;;;;;;;8.40;nan;101275.19;5026435;28;19925;-85
2023/12/09 10:43:01;;;;;;;;;;;;;;;8.40;nan;101267.16;5027820;28;20429;-85
2023/12/09 10:45:27;;;;;;;;;;;;;;;8.39;nan;101265.53;5031080;28;20016;-85
2023/12/09 10:47:53;;;;;;;;;;;;;;;8.38;nan;101259.38;5029636;28;19936;-84
2023/12/09 10:50:19;;;;;;;;;;;;;;;8.36;nan;101257.97;5011962;28;21104;-84
2023/12/09 10:52:44;;;;;;;;;;;;;;;8.31;nan;101247.13;5031670;28;19932;-86
2023/12/09 10:55:10;;;;;;;;;;;;;;;8.33;nan;101242.38;5028368;28;19925;-86
2023/12/09 10:57:36;;;;;;;;;;;;;;;8.39;nan;101236.16;5031417;28;19921;-86
2023/12/09 11:00:07;;;;;;;;;;;;;;;8.46;nan;101232.41;5025856;28;19932;-86
2023/12/09 11:02:33;;;;;;;;;;;;;;;8.51;nan;101234.41;5029553;28;20270;-86
2023/12/09 11:04:59;;;;;;;;;;;;;;;8.51;nan;101225.56;5027959;28;20452;-86
2023/12/09 11:07:25;;;;;;;;;;;;;;;8.54;nan;101209.91;5026149;28;19925;-86
2023/12/09 11:09:51;;;;;;;;;;;;;;;8.61;nan;101217.84;5029443;28;19927;-86
2023/12/09 11:12:27;;;;;;;;;;;;;;;8.62;nan;101217.66;5028769;28;19920;-86
2023/12/09 11:14:52;;;;;;;;;;;;;;;8.62;nan;101206.97;5030772;28;19933;-85
2023/12/09 11:17:37;;;;;;;;;;;;;;;8.63;nan;101205.09;5029480;28;19932;-85
2023/12/09 11:20:13;;;;;;;;;;;;;;;8.64;nan;101196.88;5026080;28;19931;-86
2023/12/09 11:22:43;;;;;;;;;;;;;;;8.69;nan;101196.19;5032641;28;19921;-86
2023/12/09 11:25:19;;;;;;;;;;;;;;;8.71;nan;101183.41;5032174;28;20440;-86
2023/12/09 11:27:45;;;;;;;;;;;;;;;8.75;nan;101188.06;5034400;28;19929;-86
2023/12/09 11:30:29;;;;;;;;;;;;;;;8.79;nan;101183.09;5032977;28;19927;-86
2023/12/09 11:32:54;;;;;;;;;;;;;;;8.87;nan;101172.09;5033442;28;19940;-86
2023/12/09 11:35:20;;;;;;;;;;;;;;;8.87;nan;101176.63;5033723;28;19916;-85
2023/12/09 11:37:46;;;;;;;;;;;;;;;8.87;nan;101169.44;5033064;28;20442;-86
2023/12/09 11:40:13;;;;;;;;;;;;;;;8.89;nan;101169.22;5033648;28;20004;-86
2023/12/09 11:42:38;;;;;;;;;;;;;;;8.92;nan;101166.88;5034214;28;19936;-86
2023/12/09 11:45:04;;;;;;;;;;;;;;;8.88;nan;101173.75;5035768;28;20529;-86
2023/12/09 11:47:30;;;;;;;;;;;;;;;8.86;nan;101167.81;5033670;28;19921;-87
2023/12/09 11:49:57;;;;;;;;;;;;;;;8.87;nan;101160.59;5035959;28;19925;-86
2023/12/09 11:52:22;;;;;;;;;;;;;;;8.87;nan;101161.41;5033551;28;19929;-86
2023/12/09 11:54:58;;;;;;;;;;;;;;;8.90;nan;101147.59;5033596;28;19934;-86
2023/12/09 11:57:23;;;;;;;;;;;;;;;8.93;nan;101131.09;5015734;28;19925;-86
2023/12/09 11:59:51;;;;;;;;;;;;;;;8.94;nan;101127.38;5034702;28;19931;-85
2023/12/09 12:02:16;;;;;;;;;;;;;;;8.94;nan;101123.91;5034363;28;20051;-85
2023/12/09 12:04:41;;;;;;;;;;;;;;;8.94;nan;101123.91;5029093;28;19944;-87
2023/12/09 12:07:06;;;;;;;;;;;;;;;8.97;nan;101120.78;5028527;28;19981;-86
2023/12/09 12:09:32;;;;;;;;;;;;;;;8.99;nan;101111.50;5029703;28;20450;-86
2023/12/09 12:11:57;;;;;;;;;;;;;;;9.03;nan;101114.53;5033064;28;19925;-86
2023/12/09 12:14:24;;;;;;;;;;;;;;;9.07;nan;101113.03;5034832;28;20020;-85
2023/12/09 12:16:50;;;;;;;;;;;;;;;9.11;nan;101108.84;5038808;28;19956;-86
2023/12/09 12:19:16;;;;;;;;;;;;;;;9.15;nan;101112.69;5036943;28;20423;-86
2023/12/09 12:21:41;;;;;;;;;;;;;;;9.14;nan;101107.56;5038977;28;19928;-86
2023/12/09 12:24:08;;;;;;;;;;;;;;;9.15;nan;101106.53;5044115;28;19921;-86
2023/12/09 12:26:33;;;;;;;;;;;;;;;9.13;nan;101106.75;5041607;28;19921;-86
2023/12/09 12:28:59;;;;;;;;;;;;;;;9.16;nan;101095.63;5040513;28;19920;-86
2023/12/09 12:31:25;;;;;;;;;;;;;;;9.18;nan;101101.56;5041463;28;20047;-86
2023/12/09 12:33:50;;;;;;;;;;;;;;;9.20;nan;101088.78;5035948;28;20393;-86
2023/12/09 12:36:16;;;;;;;;;;;;;;;9.22;nan;101093.88;5039733;28;19920;-86
2023/12/09 12:38:42;;;;;;;;;;;;;;;9.24;nan;101091.78;5041287;28;19977;-86
2023/12/09 12:41:07;;;;;;;;;;;;;;;9.28;nan;101085.75;5038105;28;19917;-87
2023/12/09 12:43:33;;;;;;;;;;;;;;;9.33;nan;101080.50;5034910;28;20323;-87
2023/12/09 12:45:59;;;;;;;;;;;;;;;9.36;nan;101077.41;5019520;28;19960;-87
2023/12/09 12:48:24;;;;;;;;;;;;;;;9.36;nan;101074.72;5034454;28;20244;-87
2023/12/09 12:50:50;;;;;;;;;;;;;;;9.37;nan;101071.00;5035237;28;19917;-86
2023/12/09 12:53:20;;;;;;;;;;;;;;;9.40;nan;101067.03;5034019;28;20056;-86
2023/12/09 12:55:46;;;;;;;;;;;;;;;9.42;nan;101069.47;5036980;28;21195;-86
2023/12/09 12:58:11;;;;;;;;;;;;;;;9.42;nan;101064.13;5032634;28;19925;-87
2023/12/09 13:00:36;;;;;;;;;;;;;;;9.40;nan;101061.69;5031936;28;20453;-86